NCAR-RAP Real-Time Weather Data

Output produced by METARs form (23 June 2021  07:55 UTC)
found at http://weather.rap.ucar.edu/surface/
 
CYLL 230700Z AUTO 32008KT 9SM FEW130 17/11 A2957 RMK LTNG DIST S SW SLP012 DENSITY ALT 3300FT
CYLL 230600Z AUTO 33009G18KT 9SM BKN130 19/11 A2957 RMK SLP010 DENSITY ALT 3600FT
CYLL 230500Z AUTO 32007KT 9SM SCT130 BKN150 20/10 A2955 RMK SLP004 DENSITY ALT 3700FT
CYLL 230400Z 30007KT 15SM SCT050 BKN120 BKN270 21/09 A2952 RMK SC3AC2CI1 LAST STFD OBS/NEXT 231300Z SLP992 DENSITY ALT 3900FT
CYLL 230300Z 27009KT 15SM FEW120 FEW270 21/13 A2950 RMK AC1CI1 SLP986 DENSITY ALT 3900FT
CYLL 230200Z 29009KT 15SM FEW280 25/11 A2948 RMK CI2 SLP980 DENSITY ALT 4400FT
CYLL 230100Z 28011KT 15SM FEW060 BKN270 26/11 A2948 RMK CU1CI5 CU TR SLP981 DENSITY ALT 4400FT
CYLL 230000Z 28013G19KT 15SM FEW070 SCT270 27/11 A2949 RMK CU1CI2 SLP982 DENSITY ALT 4600FT
CYLL 222300Z 28012G19KT 15SM FEW065 FEW120 SCT280 28/11 A2950 RMK CU2AC1CI1 AC TR SLP989 DENSITY ALT 4700FT
CYLL 222200Z 27013G19KT 15SM FEW065 FEW120 FEW280 27/12 A2951 RMK CU1AC1CI1 CU TR SLP993 DENSITY ALT 4600FT
CYLL 222100Z 27010KT 15SM FEW045 SCT120 BKN270 26/15 A2953 RMK CU1AC4CI1 CU TR SLP998 DENSITY ALT 4400FT
CYLL 222000Z 26011KT 15SM BKN140 BKN260 24/13 A2954 RMK AC5CI1 SLP001 DENSITY ALT 4200FT